sensor_id;sensor_type;location;lat;lon;timestamp;P1;durP1;ratioP1;P2;durP2;ratioP2
80241;SDS011;69556;45.004;7.532;2024-03-08T00:00:03;9.38;;;4.88;;
80241;SDS011;69556;45.004;7.532;2024-03-08T00:02:35;8.52;;;4.72;;
80241;SDS011;69556;45.004;7.532;2024-03-08T00:05:02;7.57;;;4.35;;
80241;SDS011;69556;45.004;7.532;2024-03-08T00:07:28;8.30;;;4.97;;
80241;SDS011;69556;45.004;7.532;2024-03-08T00:09:54;9.03;;;4.33;;
80241;SDS011;69556;45.004;7.532;2024-03-08T00:12:19;6.80;;;4.87;;
80241;SDS011;69556;45.004;7.532;2024-03-08T00:14:45;9.60;;;4.47;;
80241;SDS011;69556;45.004;7.532;2024-03-08T00:17:10;9.60;;;4.20;;
80241;SDS011;69556;45.004;7.532;2024-03-08T00:19:36;11.35;;;5.20;;
80241;SDS011;69556;45.004;7.532;2024-03-08T00:22:02;11.02;;;4.45;;
80241;SDS011;69556;45.004;7.532;2024-03-08T00:24:27;10.02;;;4.22;;
80241;SDS011;69556;45.004;7.532;2024-03-08T00:26:54;9.05;;;4.78;;
80241;SDS011;69556;45.004;7.532;2024-03-08T00:29:19;8.10;;;3.90;;
80241;SDS011;69556;45.004;7.532;2024-03-08T00:31:45;7.22;;;4.28;;
80241;SDS011;69556;45.004;7.532;2024-03-08T00:34:10;10.00;;;4.47;;
80241;SDS011;69556;45.004;7.532;2024-03-08T00:36:37;8.85;;;4.35;;
80241;SDS011;69556;45.004;7.532;2024-03-08T00:39:02;8.95;;;4.22;;
80241;SDS011;69556;45.004;7.532;2024-03-08T00:41:31;10.73;;;4.63;;
80241;SDS011;69556;45.004;7.532;2024-03-08T00:43:57;7.03;;;3.92;;
80241;SDS011;69556;45.004;7.532;2024-03-08T00:46:23;8.45;;;4.07;;
80241;SDS011;69556;45.004;7.532;2024-03-08T00:48:48;6.68;;;3.78;;
80241;SDS011;69556;45.004;7.532;2024-03-08T00:51:14;5.50;;;3.67;;
80241;SDS011;69556;45.004;7.532;2024-03-08T00:53:40;7.97;;;3.95;;
80241;SDS011;69556;45.004;7.532;2024-03-08T00:56:06;5.38;;;3.13;;
80241;SDS011;69556;45.004;7.532;2024-03-08T00:58:36;6.22;;;3.40;;
80241;SDS011;69556;45.004;7.532;2024-03-08T01:01:02;9.93;;;4.00;;
80241;SDS011;69556;45.004;7.532;2024-03-08T01:03:27;8.50;;;3.30;;
80241;SDS011;69556;45.004;7.532;2024-03-08T01:05:53;10.55;;;4.38;;
80241;SDS011;69556;45.004;7.532;2024-03-08T01:08:19;12.82;;;5.18;;
80241;SDS011;69556;45.004;7.532;2024-03-08T01:10:44;14.20;;;4.82;;
80241;SDS011;69556;45.004;7.532;2024-03-08T01:13:09;13.38;;;4.68;;
80241;SDS011;69556;45.004;7.532;2024-03-08T01:15:35;18.55;;;5.40;;
80241;SDS011;69556;45.004;7.532;2024-03-08T01:18:00;11.32;;;4.60;;
80241;SDS011;69556;45.004;7.532;2024-03-08T01:20:26;7.72;;;3.63;;
80241;SDS011;69556;45.004;7.532;2024-03-08T01:22:52;7.47;;;3.35;;
80241;SDS011;69556;45.004;7.532;2024-03-08T01:25:18;7.13;;;3.33;;
80241;SDS011;69556;45.004;7.532;2024-03-08T01:27:43;7.35;;;3.40;;
80241;SDS011;69556;45.004;7.532;2024-03-08T01:30:09;5.68;;;3.20;;
80241;SDS011;69556;45.004;7.532;2024-03-08T01:32:34;8.45;;;4.45;;
80241;SDS011;69556;45.004;7.532;2024-03-08T01:35:00;9.85;;;4.47;;
80241;SDS011;69556;45.004;7.532;2024-03-08T01:37:26;7.97;;;3.97;;
80241;SDS011;69556;45.004;7.532;2024-03-08T01:39:51;6.47;;;3.80;;
80241;SDS011;69556;45.004;7.532;2024-03-08T01:42:17;5.80;;;4.22;;
80241;SDS011;69556;45.004;7.532;2024-03-08T01:44:43;6.53;;;3.65;;
80241;SDS011;69556;45.004;7.532;2024-03-08T01:47:09;7.95;;;4.50;;
80241;SDS011;69556;45.004;7.532;2024-03-08T01:49:36;9.40;;;3.60;;
80241;SDS011;69556;45.004;7.532;2024-03-08T01:52:02;7.80;;;3.67;;
80241;SDS011;69556;45.004;7.532;2024-03-08T01:54:28;9.65;;;3.35;;
80241;SDS011;69556;45.004;7.532;2024-03-08T01:56:55;10.93;;;4.07;;
80241;SDS011;69556;45.004;7.532;2024-03-08T01:59:22;9.07;;;4.63;;
80241;SDS011;69556;45.004;7.532;2024-03-08T02:01:48;7.95;;;4.35;;
80241;SDS011;69556;45.004;7.532;2024-03-08T02:04:14;9.50;;;4.90;;
80241;SDS011;69556;45.004;7.532;2024-03-08T02:06:39;5.65;;;3.60;;
80241;SDS011;69556;45.004;7.532;2024-03-08T02:09:05;6.45;;;3.95;;
80241;SDS011;69556;45.004;7.532;2024-03-08T02:11:31;9.18;;;4.10;;
80241;SDS011;69556;45.004;7.532;2024-03-08T02:13:57;10.93;;;4.57;;
80241;SDS011;69556;45.004;7.532;2024-03-08T02:16:23;6.90;;;3.67;;
80241;SDS011;69556;45.004;7.532;2024-03-08T02:18:48;8.93;;;4.15;;
80241;SDS011;69556;45.004;7.532;2024-03-08T02:21:14;7.22;;;3.70;;
80241;SDS011;69556;45.004;7.532;2024-03-08T02:23:43;6.78;;;4.20;;
80241;SDS011;69556;45.004;7.532;2024-03-08T02:26:09;7.30;;;3.83;;
80241;SDS011;69556;45.004;7.532;2024-03-08T02:28:34;8.02;;;3.95;;
80241;SDS011;69556;45.004;7.532;2024-03-08T02:31:01;5.80;;;3.50;;
80241;SDS011;69556;45.004;7.532;2024-03-08T02:33:27;6.20;;;3.85;;
80241;SDS011;69556;45.004;7.532;2024-03-08T02:35:53;8.02;;;3.50;;
80241;SDS011;69556;45.004;7.532;2024-03-08T02:38:21;5.70;;;3.75;;
80241;SDS011;69556;45.004;7.532;2024-03-08T02:40:47;7.68;;;4.13;;
80241;SDS011;69556;45.004;7.532;2024-03-08T02:43:14;5.38;;;3.17;;
80241;SDS011;69556;45.004;7.532;2024-03-08T02:45:41;5.80;;;3.45;;
80241;SDS011;69556;45.004;7.532;2024-03-08T02:48:10;8.18;;;3.72;;
80241;SDS011;69556;45.004;7.532;2024-03-08T02:50:37;6.20;;;3.53;;
80241;SDS011;69556;45.004;7.532;2024-03-08T02:53:04;7.75;;;4.03;;
80241;SDS011;69556;45.004;7.532;2024-03-08T02:55:30;6.13;;;3.78;;
80241;SDS011;69556;45.004;7.532;2024-03-08T02:57:56;6.20;;;3.85;;
80241;SDS011;69556;45.004;7.532;2024-03-08T03:00:22;7.95;;;4.50;;
80241;SDS011;69556;45.004;7.532;2024-03-08T03:02:48;9.38;;;4.55;;
80241;SDS011;69556;45.004;7.532;2024-03-08T03:05:21;6.82;;;4.57;;
80241;SDS011;69556;45.004;7.532;2024-03-08T03:07:50;9.25;;;5.75;;
80241;SDS011;69556;45.004;7.532;2024-03-08T03:10:16;10.10;;;5.32;;
80241;SDS011;69556;45.004;7.532;2024-03-08T03:12:42;12.05;;;5.53;;
80241;SDS011;69556;45.004;7.532;2024-03-08T03:15:08;11.20;;;6.28;;
80241;SDS011;69556;45.004;7.532;2024-03-08T03:17:33;10.15;;;5.43;;
80241;SDS011;69556;45.004;7.532;2024-03-08T03:19:59;12.73;;;6.05;;
80241;SDS011;69556;45.004;7.532;2024-03-08T03:22:27;10.73;;;6.15;;
80241;SDS011;69556;45.004;7.532;2024-03-08T03:24:55;9.15;;;6.68;;
80241;SDS011;69556;45.004;7.532;2024-03-08T03:27:23;12.18;;;6.25;;
80241;SDS011;69556;45.004;7.532;2024-03-08T03:29:49;12.65;;;7.53;;
80241;SDS011;69556;45.004;7.532;2024-03-08T03:32:17;16.55;;;7.78;;
80241;SDS011;69556;45.004;7.532;2024-03-08T03:34:43;10.77;;;6.95;;
80241;SDS011;69556;45.004;7.532;2024-03-08T03:37:09;11.27;;;7.13;;
80241;SDS011;69556;45.004;7.532;2024-03-08T03:39:37;12.77;;;8.23;;
80241;SDS011;69556;45.004;7.532;2024-03-08T03:42:18;10.88;;;7.38;;
80241;SDS011;69556;45.004;7.532;2024-03-08T03:44:45;10.95;;;7.75;;
80241;SDS011;69556;45.004;7.532;2024-03-08T03:47:12;12.18;;;7.90;;
80241;SDS011;69556;45.004;7.532;2024-03-08T03:49:37;14.60;;;8.65;;
80241;SDS011;69556;45.004;7.532;2024-03-08T03:52:03;9.80;;;7.07;;
80241;SDS011;69556;45.004;7.532;2024-03-08T03:54:29;16.60;;;9.00;;
80241;SDS011;69556;45.004;7.532;2024-03-08T03:56:55;13.98;;;9.48;;
80241;SDS011;69556;45.004;7.532;2024-03-08T03:59:21;13.30;;;9.27;;
80241;SDS011;69556;45.004;7.532;2024-03-08T04:01:47;11.20;;;7.75;;
80241;SDS011;69556;45.004;7.532;2024-03-08T04:04:12;14.23;;;7.35;;
80241;SDS011;69556;45.004;7.532;2024-03-08T04:06:38;11.00;;;6.68;;
80241;SDS011;69556;45.004;7.532;2024-03-08T04:09:03;11.00;;;6.33;;
80241;SDS011;69556;45.004;7.532;2024-03-08T04:11:29;9.13;;;5.78;;
80241;SDS011;69556;45.004;7.532;2024-03-08T04:13:55;9.55;;;6.57;;
80241;SDS011;69556;45.004;7.532;2024-03-08T04:16:21;8.82;;;5.55;;
80241;SDS011;69556;45.004;7.532;2024-03-08T04:18:46;9.05;;;5.22;;
80241;SDS011;69556;45.004;7.532;2024-03-08T04:21:12;7.95;;;5.20;;
80241;SDS011;69556;45.004;7.532;2024-03-08T04:23:38;7.60;;;5.22;;
80241;SDS011;69556;45.004;7.532;2024-03-08T04:26:03;8.45;;;5.63;;
80241;SDS011;69556;45.004;7.532;2024-03-08T04:28:33;8.80;;;5.45;;
80241;SDS011;69556;45.004;7.532;2024-03-08T04:30:59;8.40;;;5.03;;
80241;SDS011;69556;45.004;7.532;2024-03-08T04:33:26;9.75;;;4.88;;
80241;SDS011;69556;45.004;7.532;2024-03-08T04:35:51;8.93;;;5.00;;
80241;SDS011;69556;45.004;7.532;2024-03-08T04:38:17;8.27;;;5.13;;
80241;SDS011;69556;45.004;7.532;2024-03-08T04:40:42;10.30;;;5.50;;
80241;SDS011;69556;45.004;7.532;2024-03-08T04:43:08;9.07;;;5.50;;
80241;SDS011;69556;45.004;7.532;2024-03-08T04:45:35;8.10;;;4.70;;
80241;SDS011;69556;45.004;7.532;2024-03-08T04:48:01;9.35;;;6.10;;
80241;SDS011;69556;45.004;7.532;2024-03-08T04:50:26;7.67;;;5.17;;
80241;SDS011;69556;45.004;7.532;2024-03-08T04:52:54;7.95;;;5.00;;
80241;SDS011;69556;45.004;7.532;2024-03-08T04:55:19;10.25;;;5.95;;
80241;SDS011;69556;45.004;7.532;2024-03-08T04:57:46;8.68;;;5.15;;
80241;SDS011;69556;45.004;7.532;2024-03-08T05:00:11;10.35;;;5.80;;
80241;SDS011;69556;45.004;7.532;2024-03-08T05:02:38;15.85;;;5.85;;
80241;SDS011;69556;45.004;7.532;2024-03-08T05:05:04;11.73;;;6.32;;
80241;SDS011;69556;45.004;7.532;2024-03-08T05:07:31;10.98;;;6.25;;
80241;SDS011;69556;45.004;7.532;2024-03-08T05:09:57;12.15;;;7.07;;
80241;SDS011;69556;45.004;7.532;2024-03-08T05:12:23;8.80;;;6.05;;
80241;SDS011;69556;45.004;7.532;2024-03-08T05:14:48;12.77;;;7.03;;
80241;SDS011;69556;45.004;7.532;2024-03-08T05:17:15;13.35;;;6.88;;
80241;SDS011;69556;45.004;7.532;2024-03-08T05:19:41;10.63;;;6.55;;
80241;SDS011;69556;45.004;7.532;2024-03-08T05:22:06;12.32;;;7.18;;
80241;SDS011;69556;45.004;7.532;2024-03-08T05:24:32;16.88;;;8.82;;
80241;SDS011;69556;45.004;7.532;2024-03-08T05:26:58;15.48;;;7.82;;
80241;SDS011;69556;45.004;7.532;2024-03-08T05:29:25;13.30;;;7.68;;
80241;SDS011;69556;45.004;7.532;2024-03-08T05:31:51;17.25;;;8.85;;
80241;SDS011;69556;45.004;7.532;2024-03-08T05:34:20;12.85;;;8.02;;
80241;SDS011;69556;45.004;7.532;2024-03-08T05:36:47;13.90;;;8.63;;
80241;SDS011;69556;45.004;7.532;2024-03-08T05:39:14;16.40;;;8.43;;
80241;SDS011;69556;45.004;7.532;2024-03-08T05:41:41;17.13;;;9.00;;
80241;SDS011;69556;45.004;7.532;2024-03-08T05:44:07;17.60;;;10.02;;
80241;SDS011;69556;45.004;7.532;2024-03-08T05:46:33;17.95;;;10.45;;
80241;SDS011;69556;45.004;7.532;2024-03-08T05:48:59;16.55;;;9.80;;
80241;SDS011;69556;45.004;7.532;2024-03-08T05:51:25;20.52;;;10.23;;
80241;SDS011;69556;45.004;7.532;2024-03-08T05:53:53;13.55;;;9.70;;
80241;SDS011;69556;45.004;7.532;2024-03-08T05:56:21;16.67;;;9.70;;
80241;SDS011;69556;45.004;7.532;2024-03-08T05:58:48;19.25;;;10.50;;
80241;SDS011;69556;45.004;7.532;2024-03-08T06:01:15;18.05;;;10.98;;
80241;SDS011;69556;45.004;7.532;2024-03-08T06:03:40;22.63;;;12.73;;
80241;SDS011;69556;45.004;7.532;2024-03-08T06:06:11;19.58;;;11.77;;
80241;SDS011;69556;45.004;7.532;2024-03-08T06:08:40;21.55;;;12.25;;
80241;SDS011;69556;45.004;7.532;2024-03-08T06:11:07;20.02;;;12.63;;
80241;SDS011;69556;45.004;7.532;2024-03-08T06:13:33;21.17;;;13.73;;
80241;SDS011;69556;45.004;7.532;2024-03-08T06:15:59;22.52;;;14.02;;
80241;SDS011;69556;45.004;7.532;2024-03-08T06:18:25;22.70;;;13.75;;
80241;SDS011;69556;45.004;7.532;2024-03-08T06:20:51;22.25;;;12.55;;
80241;SDS011;69556;45.004;7.532;2024-03-08T06:23:17;23.52;;;14.27;;
80241;SDS011;69556;45.004;7.532;2024-03-08T06:25:45;22.27;;;14.82;;
80241;SDS011;69556;45.004;7.532;2024-03-08T06:28:11;23.80;;;14.43;;
80241;SDS011;69556;45.004;7.532;2024-03-08T06:30:36;23.40;;;14.70;;
80241;SDS011;69556;45.004;7.532;2024-03-08T06:33:01;25.77;;;15.10;;
80241;SDS011;69556;45.004;7.532;2024-03-08T06:35:27;23.83;;;15.48;;
80241;SDS011;69556;45.004;7.532;2024-03-08T06:37:52;27.70;;;16.52;;
80241;SDS011;69556;45.004;7.532;2024-03-08T06:40:18;24.65;;;15.00;;
80241;SDS011;69556;45.004;7.532;2024-03-08T06:42:43;27.75;;;16.15;;
80241;SDS011;69556;45.004;7.532;2024-03-08T06:45:09;26.63;;;16.83;;
80241;SDS011;69556;45.004;7.532;2024-03-08T06:47:35;35.20;;;16.95;;
80241;SDS011;69556;45.004;7.532;2024-03-08T06:50:01;30.58;;;15.15;;
80241;SDS011;69556;45.004;7.532;2024-03-08T06:52:28;33.78;;;16.52;;
80241;SDS011;69556;45.004;7.532;2024-03-08T06:54:54;30.77;;;15.60;;
80241;SDS011;69556;45.004;7.532;2024-03-08T06:57:19;28.23;;;16.88;;
80241;SDS011;69556;45.004;7.532;2024-03-08T06:59:48;29.70;;;18.08;;
80241;SDS011;69556;45.004;7.532;2024-03-08T07:02:14;28.30;;;17.20;;
80241;SDS011;69556;45.004;7.532;2024-03-08T07:04:39;28.88;;;18.08;;
80241;SDS011;69556;45.004;7.532;2024-03-08T07:07:05;34.60;;;18.50;;
80241;SDS011;69556;45.004;7.532;2024-03-08T07:09:34;28.77;;;17.20;;
80241;SDS011;69556;45.004;7.532;2024-03-08T07:12:01;30.83;;;17.67;;
80241;SDS011;69556;45.004;7.532;2024-03-08T07:16:54;29.20;;;17.17;;
80241;SDS011;69556;45.004;7.532;2024-03-08T07:19:20;31.58;;;17.98;;
80241;SDS011;69556;45.004;7.532;2024-03-08T07:21:46;25.77;;;16.45;;
80241;SDS011;69556;45.004;7.532;2024-03-08T07:24:12;34.40;;;20.45;;
80241;SDS011;69556;45.004;7.532;2024-03-08T07:26:53;27.23;;;18.65;;
80241;SDS011;69556;45.004;7.532;2024-03-08T07:29:19;34.50;;;19.60;;
80241;SDS011;69556;45.004;7.532;2024-03-08T07:31:44;36.58;;;18.55;;
80241;SDS011;69556;45.004;7.532;2024-03-08T07:34:16;31.17;;;19.33;;
80241;SDS011;69556;45.004;7.532;2024-03-08T07:36:41;30.02;;;18.02;;
80241;SDS011;69556;45.004;7.532;2024-03-08T07:39:07;38.60;;;19.92;;
80241;SDS011;69556;45.004;7.532;2024-03-08T07:41:37;34.33;;;19.13;;
80241;SDS011;69556;45.004;7.532;2024-03-08T07:44:05;32.38;;;19.38;;
80241;SDS011;69556;45.004;7.532;2024-03-08T07:46:31;34.72;;;16.80;;
80241;SDS011;69556;45.004;7.532;2024-03-08T07:48:59;34.17;;;18.98;;
80241;SDS011;69556;45.004;7.532;2024-03-08T07:51:24;30.88;;;18.42;;
80241;SDS011;69556;45.004;7.532;2024-03-08T07:53:50;28.38;;;17.15;;
80241;SDS011;69556;45.004;7.532;2024-03-08T07:56:15;27.13;;;16.73;;
80241;SDS011;69556;45.004;7.532;2024-03-08T07:58:46;25.98;;;16.80;;
80241;SDS011;69556;45.004;7.532;2024-03-08T08:01:15;30.67;;;16.42;;
80241;SDS011;69556;45.004;7.532;2024-03-08T08:03:44;23.40;;;15.23;;
80241;SDS011;69556;45.004;7.532;2024-03-08T08:06:10;21.75;;;14.43;;
80241;SDS011;69556;45.004;7.532;2024-03-08T08:08:41;28.75;;;15.82;;
80241;SDS011;69556;45.004;7.532;2024-03-08T08:11:07;26.85;;;15.50;;
80241;SDS011;69556;45.004;7.532;2024-03-08T08:13:34;23.73;;;15.27;;
80241;SDS011;69556;45.004;7.532;2024-03-08T08:15:59;21.92;;;14.38;;
80241;SDS011;69556;45.004;7.532;2024-03-08T08:18:25;23.23;;;15.32;;
80241;SDS011;69556;45.004;7.532;2024-03-08T08:20:50;28.13;;;13.80;;
80241;SDS011;69556;45.004;7.532;2024-03-08T08:23:17;26.70;;;15.48;;
80241;SDS011;69556;45.004;7.532;2024-03-08T08:25:44;20.17;;;13.23;;
80241;SDS011;69556;45.004;7.532;2024-03-08T08:28:11;20.45;;;12.40;;
80241;SDS011;69556;45.004;7.532;2024-03-08T08:30:37;30.35;;;14.43;;
80241;SDS011;69556;45.004;7.532;2024-03-08T08:33:04;28.73;;;14.43;;
80241;SDS011;69556;45.004;7.532;2024-03-08T08:35:30;29.65;;;15.02;;
80241;SDS011;69556;45.004;7.532;2024-03-08T08:37:57;24.20;;;14.27;;
80241;SDS011;69556;45.004;7.532;2024-03-08T08:40:24;21.75;;;13.68;;
80241;SDS011;69556;45.004;7.532;2024-03-08T08:42:50;27.35;;;14.07;;
80241;SDS011;69556;45.004;7.532;2024-03-08T08:45:18;22.73;;;12.88;;
80241;SDS011;69556;45.004;7.532;2024-03-08T08:47:44;27.38;;;13.95;;
80241;SDS011;69556;45.004;7.532;2024-03-08T08:50:10;23.13;;;14.02;;
80241;SDS011;69556;45.004;7.532;2024-03-08T08:52:39;22.58;;;11.35;;
80241;SDS011;69556;45.004;7.532;2024-03-08T08:55:08;19.55;;;12.27;;
80241;SDS011;69556;45.004;7.532;2024-03-08T08:57:34;29.52;;;13.07;;
80241;SDS011;69556;45.004;7.532;2024-03-08T09:00:00;22.42;;;12.23;;
80241;SDS011;69556;45.004;7.532;2024-03-08T09:02:26;21.33;;;12.65;;
80241;SDS011;69556;45.004;7.532;2024-03-08T09:04:54;27.80;;;14.38;;
80241;SDS011;69556;45.004;7.532;2024-03-08T09:07:19;22.77;;;13.48;;
80241;SDS011;69556;45.004;7.532;2024-03-08T09:09:45;29.90;;;13.57;;
80241;SDS011;69556;45.004;7.532;2024-03-08T09:12:11;25.37;;;14.20;;
80241;SDS011;69556;45.004;7.532;2024-03-08T09:14:39;22.98;;;13.85;;
80241;SDS011;69556;45.004;7.532;2024-03-08T09:17:05;28.05;;;14.98;;
80241;SDS011;69556;45.004;7.532;2024-03-08T09:21:58;26.33;;;14.90;;
80241;SDS011;69556;45.004;7.532;2024-03-08T09:24:24;21.55;;;14.98;;
80241;SDS011;69556;45.004;7.532;2024-03-08T09:26:49;30.05;;;14.63;;
80241;SDS011;69556;45.004;7.532;2024-03-08T09:29:15;30.77;;;15.05;;
80241;SDS011;69556;45.004;7.532;2024-03-08T09:31:41;24.83;;;15.27;;
80241;SDS011;69556;45.004;7.532;2024-03-08T09:34:06;25.02;;;14.38;;
80241;SDS011;69556;45.004;7.532;2024-03-08T09:36:33;23.40;;;15.27;;
80241;SDS011;69556;45.004;7.532;2024-03-08T09:38:59;23.98;;;14.88;;
80241;SDS011;69556;45.004;7.532;2024-03-08T09:41:25;24.48;;;14.88;;
80241;SDS011;69556;45.004;7.532;2024-03-08T09:43:51;25.00;;;14.48;;
80241;SDS011;69556;45.004;7.532;2024-03-08T09:46:16;30.40;;;16.35;;
80241;SDS011;69556;45.004;7.532;2024-03-08T09:48:44;23.83;;;14.18;;
80241;SDS011;69556;45.004;7.532;2024-03-08T09:51:11;28.23;;;15.70;;
80241;SDS011;69556;45.004;7.532;2024-03-08T09:53:40;25.85;;;15.68;;
80241;SDS011;69556;45.004;7.532;2024-03-08T09:56:07;27.48;;;17.42;;
80241;SDS011;69556;45.004;7.532;2024-03-08T09:58:33;31.20;;;15.98;;
80241;SDS011;69556;45.004;7.532;2024-03-08T10:00:58;25.88;;;17.85;;
80241;SDS011;69556;45.004;7.532;2024-03-08T10:03:27;26.80;;;17.27;;
80241;SDS011;69556;45.004;7.532;2024-03-08T10:05:52;29.30;;;18.35;;
80241;SDS011;69556;45.004;7.532;2024-03-08T10:08:21;30.25;;;19.40;;
80241;SDS011;69556;45.004;7.532;2024-03-08T10:10:47;29.23;;;18.90;;
80241;SDS011;69556;45.004;7.532;2024-03-08T10:13:12;29.65;;;18.88;;
80241;SDS011;69556;45.004;7.532;2024-03-08T10:15:39;32.72;;;20.65;;
80241;SDS011;69556;45.004;7.532;2024-03-08T10:18:05;33.28;;;20.65;;
80241;SDS011;69556;45.004;7.532;2024-03-08T10:20:32;32.92;;;19.83;;
80241;SDS011;69556;45.004;7.532;2024-03-08T10:23:00;30.38;;;17.50;;
80241;SDS011;69556;45.004;7.532;2024-03-08T10:25:28;30.38;;;19.30;;
80241;SDS011;69556;45.004;7.532;2024-03-08T10:27:55;30.63;;;18.10;;
80241;SDS011;69556;45.004;7.532;2024-03-08T10:30:21;35.28;;;19.30;;
80241;SDS011;69556;45.004;7.532;2024-03-08T10:32:47;28.77;;;18.25;;
80241;SDS011;69556;45.004;7.532;2024-03-08T10:35:13;29.95;;;20.27;;
80241;SDS011;69556;45.004;7.532;2024-03-08T10:37:48;29.63;;;19.92;;
80241;SDS011;69556;45.004;7.532;2024-03-08T10:40:28;28.45;;;18.73;;
80241;SDS011;69556;45.004;7.532;2024-03-08T10:42:56;31.95;;;18.45;;
80241;SDS011;69556;45.004;7.532;2024-03-08T10:45:36;31.98;;;18.40;;
80241;SDS011;69556;45.004;7.532;2024-03-08T10:50:59;34.72;;;19.88;;
80241;SDS011;69556;45.004;7.532;2024-03-08T10:53:27;35.47;;;18.90;;
80241;SDS011;69556;45.004;7.532;2024-03-08T10:55:54;33.53;;;18.50;;
80241;SDS011;69556;45.004;7.532;2024-03-08T10:58:22;32.22;;;17.52;;
80241;SDS011;69556;45.004;7.532;2024-03-08T11:00:52;32.65;;;19.55;;
80241;SDS011;69556;45.004;7.532;2024-03-08T11:03:52;37.95;;;21.33;;
80241;SDS011;69556;45.004;7.532;2024-03-08T11:12:40;35.20;;;20.75;;
80241;SDS011;69556;45.004;7.532;2024-03-08T11:14:44;38.47;;;23.90;;
80241;SDS011;69556;45.004;7.532;2024-03-08T11:17:14;36.97;;;22.50;;
80241;SDS011;69556;45.004;7.532;2024-03-08T11:19:45;41.17;;;23.98;;
80241;SDS011;69556;45.004;7.532;2024-03-08T11:22:20;37.17;;;21.10;;
80241;SDS011;69556;45.004;7.532;2024-03-08T11:24:49;36.85;;;20.27;;
80241;SDS011;69556;45.004;7.532;2024-03-08T11:27:15;37.38;;;21.10;;
80241;SDS011;69556;45.004;7.532;2024-03-08T11:29:40;43.00;;;22.00;;
80241;SDS011;69556;45.004;7.532;2024-03-08T11:34:40;37.42;;;21.25;;
80241;SDS011;69556;45.004;7.532;2024-03-08T11:37:18;37.85;;;21.15;;
80241;SDS011;69556;45.004;7.532;2024-03-08T11:39:52;40.50;;;22.15;;
80241;SDS011;69556;45.004;7.532;2024-03-08T11:42:26;36.80;;;22.15;;
80241;SDS011;69556;45.004;7.532;2024-03-08T11:44:52;35.25;;;19.25;;
80241;SDS011;69556;45.004;7.532;2024-03-08T11:47:18;38.55;;;21.55;;
80241;SDS011;69556;45.004;7.532;2024-03-08T11:49:44;36.70;;;20.50;;
80241;SDS011;69556;45.004;7.532;2024-03-08T11:52:13;37.88;;;21.30;;
80241;SDS011;69556;45.004;7.532;2024-03-08T11:54:52;37.28;;;20.60;;
80241;SDS011;69556;45.004;7.532;2024-03-08T11:57:20;37.92;;;20.58;;
80241;SDS011;69556;45.004;7.532;2024-03-08T11:59:51;42.15;;;22.52;;
80241;SDS011;69556;45.004;7.532;2024-03-08T12:02:16;42.00;;;22.85;;
80241;SDS011;69556;45.004;7.532;2024-03-08T12:04:44;44.28;;;22.58;;
80241;SDS011;69556;45.004;7.532;2024-03-08T12:07:11;39.97;;;23.38;;
80241;SDS011;69556;45.004;7.532;2024-03-08T12:12:06;44.63;;;21.77;;
80241;SDS011;69556;45.004;7.532;2024-03-08T12:14:32;40.53;;;22.20;;
80241;SDS011;69556;45.004;7.532;2024-03-08T12:16:59;48.97;;;23.77;;
80241;SDS011;69556;45.004;7.532;2024-03-08T12:19:26;44.00;;;24.02;;
80241;SDS011;69556;45.004;7.532;2024-03-08T12:21:53;46.08;;;23.98;;
80241;SDS011;69556;45.004;7.532;2024-03-08T12:24:19;43.88;;;24.23;;
80241;SDS011;69556;45.004;7.532;2024-03-08T12:26:46;47.33;;;24.75;;
80241;SDS011;69556;45.004;7.532;2024-03-08T12:31:57;48.75;;;24.13;;
80241;SDS011;69556;45.004;7.532;2024-03-08T12:34:25;48.15;;;24.70;;
80241;SDS011;69556;45.004;7.532;2024-03-08T12:36:57;42.47;;;24.02;;
80241;SDS011;69556;45.004;7.532;2024-03-08T12:39:23;50.90;;;25.52;;
80241;SDS011;69556;45.004;7.532;2024-03-08T12:41:51;47.95;;;23.45;;
80241;SDS011;69556;45.004;7.532;2024-03-08T12:44:18;48.28;;;26.17;;
80241;SDS011;69556;45.004;7.532;2024-03-08T12:46:46;48.00;;;25.35;;
80241;SDS011;69556;45.004;7.532;2024-03-08T12:49:13;50.78;;;26.20;;
80241;SDS011;69556;45.004;7.532;2024-03-08T12:51:42;51.85;;;26.33;;
80241;SDS011;69556;45.004;7.532;2024-03-08T12:54:10;52.65;;;27.00;;
80241;SDS011;69556;45.004;7.532;2024-03-08T12:56:36;49.38;;;24.13;;
80241;SDS011;69556;45.004;7.532;2024-03-08T12:59:02;54.40;;;27.23;;
80241;SDS011;69556;45.004;7.532;2024-03-08T13:01:29;55.33;;;28.67;;
80241;SDS011;69556;45.004;7.532;2024-03-08T13:03:57;51.97;;;26.55;;
80241;SDS011;69556;45.004;7.532;2024-03-08T13:06:23;50.85;;;26.75;;
80241;SDS011;69556;45.004;7.532;2024-03-08T13:08:53;52.45;;;26.95;;
80241;SDS011;69556;45.004;7.532;2024-03-08T13:11:20;49.75;;;27.88;;
80241;SDS011;69556;45.004;7.532;2024-03-08T13:13:46;49.08;;;26.02;;
80241;SDS011;69556;45.004;7.532;2024-03-08T13:16:12;55.97;;;26.42;;
80241;SDS011;69556;45.004;7.532;2024-03-08T13:18:42;56.58;;;25.90;;
80241;SDS011;69556;45.004;7.532;2024-03-08T13:21:08;49.97;;;25.30;;
80241;SDS011;69556;45.004;7.532;2024-03-08T13:23:34;50.72;;;25.85;;
80241;SDS011;69556;45.004;7.532;2024-03-08T13:26:09;54.75;;;26.40;;
80241;SDS011;69556;45.004;7.532;2024-03-08T13:28:50;54.72;;;26.30;;
80241;SDS011;69556;45.004;7.532;2024-03-08T13:31:22;51.78;;;26.42;;
80241;SDS011;69556;45.004;7.532;2024-03-08T13:33:48;47.85;;;25.00;;
80241;SDS011;69556;45.004;7.532;2024-03-08T13:36:14;49.92;;;27.45;;
80241;SDS011;69556;45.004;7.532;2024-03-08T13:38:43;58.13;;;27.13;;
80241;SDS011;69556;45.004;7.532;2024-03-08T13:41:10;53.55;;;26.17;;
80241;SDS011;69556;45.004;7.532;2024-03-08T13:43:36;53.55;;;28.23;;
80241;SDS011;69556;45.004;7.532;2024-03-08T13:46:03;52.50;;;26.85;;
80241;SDS011;69556;45.004;7.532;2024-03-08T13:48:29;47.83;;;26.17;;
80241;SDS011;69556;45.004;7.532;2024-03-08T13:50:55;49.22;;;26.50;;
80241;SDS011;69556;45.004;7.532;2024-03-08T13:53:22;54.40;;;27.30;;
